Time;durP1;ratioP1;P1;durP2;ratioP2;P2;SDS_P1;SDS_P2;PMS_P1;PMS_P2;Temp;Humidity;BMP_temperature;BMP_pressure;BME280_temperature;BME280_humidity;BME280_pressure;Samples;Min_cycle;Max_cycle;Signal;HPM_P1;HPM_P2
2023/04/30 00:07:46;;;;;;;13.00;7.70;;;;;;;10.72;80.98;98463.13;436086;1253;98300;-42
2023/04/30 00:17:49;;;;;;;13.40;8.60;;;;;;;10.61;81.42;98468.44;436246;1261;110289;-41
2023/04/30 00:27:53;;;;;;;13.90;9.40;;;;;;;10.57;81.71;98464.88;436128;1261;108847;-42
2023/04/30 00:38:00;;;;;;;12.00;8.50;;;;;;;10.56;81.70;98467.54;436383;1248;97858;-41
2023/04/30 00:48:04;;;;;;;21.90;9.50;;;;;;;10.52;81.88;98470.48;436416;1253;108537;-42
2023/04/30 00:58:08;;;;;;;13.60;10.90;;;;;;;10.41;82.61;98476.24;436235;1261;97410;-41
2023/04/30 01:08:16;;;;;;;19.20;13.00;;;;;;;10.31;83.17;98487.11;437708;1246;110749;-41
2023/04/30 01:18:25;;;;;;;23.50;17.60;;;;;;;10.22;83.45;98492.88;437310;1261;106916;-43
2023/04/30 01:28:28;;;;;;;33.40;23.80;;;;;;;10.05;83.57;98505.77;437345;1251;97874;-41
2023/04/30 01:49:00;;;;;;;30.00;21.60;;;;;;;9.48;84.40;98542.18;437511;1247;97858;-42
2023/04/30 01:59:04;;;;;;;18.20;14.80;;;;;;;9.25;84.35;98553.25;437517;1248;109881;-42
2023/04/30 02:09:09;;;;;;;17.90;14.50;;;;;;;8.98;84.46;98561.66;437395;1251;107886;-41
2023/04/30 02:19:16;;;;;;;18.30;15.00;;;;;;;8.75;84.84;98578.14;437364;1250;97887;-42
2023/04/30 02:29:19;;;;;;;20.20;15.40;;;;;;;8.60;85.24;98590.58;437339;1251;107355;-41
2023/04/30 02:39:23;;;;;;;21.10;14.60;;;;;;;8.49;85.12;98602.52;437357;1251;98383;-43
2023/04/30 02:49:27;;;;;;;27.80;15.80;;;;;;;8.27;85.21;98619.50;437280;1250;110908;-43
2023/04/30 02:59:30;;;;;;;19.50;14.80;;;;;;;8.14;84.94;98621.77;437815;1248;107489;-42
2023/04/30 03:09:35;;;;;;;18.90;14.20;;;;;;;8.11;84.62;98625.45;437318;1247;98288;-42
2023/04/30 03:19:39;;;;;;;19.50;15.30;;;;;;;8.06;84.46;98637.07;437425;1247;108063;-41
2023/04/30 03:29:43;;;;;;;26.80;14.40;;;;;;;8.02;84.32;98649.89;437305;1250;97890;-41
2023/04/30 03:39:46;;;;;;;20.90;14.40;;;;;;;7.97;84.14;98660.48;437387;1246;109712;-41
2023/04/30 03:49:54;;;;;;;23.30;15.10;;;;;;;7.99;83.97;98664.48;437038;1247;398135;-42
2023/04/30 03:59:59;;;;;;;25.30;17.50;;;;;;;8.00;83.79;98683.80;437326;1250;98065;-41
2023/04/30 04:10:03;;;;;;;24.30;16.00;;;;;;;7.94;83.67;98698.42;437330;1247;97951;-42
2023/04/30 04:20:08;;;;;;;24.10;16.60;;;;;;;7.92;83.35;98708.88;437328;1250;107963;-41
2023/04/30 04:30:19;;;;;;;19.70;13.50;;;;;;;8.03;83.26;98725.02;437355;1248;98048;-41
2023/04/30 04:40:23;;;;;;;21.30;14.20;;;;;;;8.11;83.07;98737.03;437293;1247;109921;-41
2023/04/30 04:50:28;;;;;;;18.10;12.50;;;;;;;8.13;82.99;98753.15;437358;1250;97909;-43
2023/04/30 05:00:32;;;;;;;19.60;14.20;;;;;;;8.12;82.97;98762.55;437406;1250;110275;-41
2023/04/30 05:10:36;;;;;;;21.10;15.50;;;;;;;8.08;82.89;98774.05;437550;1250;97805;-42
2023/04/30 05:20:43;;;;;;;20.40;12.70;;;;;;;8.45;82.80;98792.05;437457;1250;96551;-41
2023/04/30 05:30:46;;;;;;;17.80;12.60;;;;;;;8.74;82.08;98803.20;437336;1250;111303;-40
2023/04/30 05:40:50;;;;;;;14.40;10.50;;;;;;;10.22;83.09;98813.00;437463;1250;107819;-41
2023/04/30 05:50:54;;;;;;;17.70;10.80;;;;;;;11.94;80.56;98815.92;437491;1250;97365;-42
2023/04/30 06:00:58;;;;;;;14.10;10.90;;;;;;;12.75;77.84;98826.20;437412;1250;97877;-41
2023/04/30 06:11:03;;;;;;;12.90;9.50;;;;;;;13.31;75.29;98838.94;437375;1250;107210;-42
2023/04/30 06:21:07;;;;;;;13.00;8.60;;;;;;;13.74;72.94;98845.05;437635;1247;97865;-41
2023/04/30 06:31:15;;;;;;;15.90;8.90;;;;;;;13.96;71.02;98854.34;437367;1247;108531;-42
2023/04/30 06:41:19;;;;;;;9.30;7.70;;;;;;;14.24;69.58;98856.23;437036;1246;98177;-42
2023/04/30 06:51:23;;;;;;;14.00;8.20;;;;;;;14.18;66.31;98870.90;437280;1250;110137;-42
2023/04/30 07:01:27;;;;;;;13.60;7.00;;;;;;;14.31;65.93;98873.78;437242;1250;97865;-43
2023/04/30 07:11:32;;;;;;;9.30;6.30;;;;;;;14.68;65.12;98882.36;437334;1248;97896;-41
2023/04/30 07:21:36;;;;;;;9.00;6.00;;;;;;;14.87;62.85;98881.49;437291;1247;110551;-42
2023/04/30 07:31:39;;;;;;;10.70;5.70;;;;;;;14.91;61.70;98889.09;437057;1250;97177;-42
2023/04/30 07:41:43;;;;;;;7.70;5.60;;;;;;;14.95;58.76;98889.83;437602;1246;98032;-41
2023/04/30 07:51:47;;;;;;;7.60;5.00;;;;;;;14.86;58.12;98895.06;437689;1250;110631;-41
2023/04/30 08:01:51;;;;;;;7.00;5.00;;;;;;;14.88;57.62;98901.69;438080;1247;97854;-42
2023/04/30 08:11:55;;;;;;;8.70;5.20;;;;;;;14.76;55.59;98910.39;437463;1248;97784;-41
2023/04/30 08:42:14;;;;;;;8.30;5.50;;;;;;;14.25;55.62;98934.56;437818;1248;96696;-41
2023/04/30 08:52:19;;;;;;;10.50;5.90;;;;;;;14.91;55.60;98941.11;437653;1250;110458;-40
2023/04/30 09:02:23;;;;;;;6.80;4.70;;;;;;;14.29;54.18;98949.34;437475;1250;108662;-42
2023/04/30 09:12:26;;;;;;;7.40;4.30;;;;;;;14.58;54.87;98947.05;437576;1250;97893;-41
2023/04/30 09:22:30;;;;;;;8.80;4.00;;;;;;;15.64;53.55;98938.44;437545;1250;97019;-42
2023/04/30 09:32:34;;;;;;;6.70;3.70;;;;;;;15.57;52.87;98944.42;437481;1247;108672;-42
2023/04/30 09:42:38;;;;;;;7.90;4.10;;;;;;;15.50;51.93;98948.85;437441;1250;97871;-42
2023/04/30 09:52:48;;;;;;;4.50;3.40;;;;;;;15.64;50.72;98950.05;437874;1247;97867;-42
2023/04/30 10:02:57;;;;;;;6.00;4.10;;;;;;;15.26;49.36;98941.32;437446;1247;107469;-42
2023/04/30 10:23:13;;;;;;;18.50;4.20;;;;;;;15.42;49.34;98932.79;437558;1248;109928;-42
2023/04/30 10:33:17;;;;;;;5.60;3.40;;;;;;;15.58;47.88;98933.94;437459;1248;108796;-42
2023/04/30 10:43:23;;;;;;;8.50;3.80;;;;;;;15.65;47.66;98938.01;437548;1248;96650;-41
2023/04/30 10:53:31;;;;;;;9.10;3.90;;;;;;;15.52;47.60;98937.34;437547;1248;110598;-43
2023/04/30 11:13:45;;;;;;;6.30;3.20;;;;;;;15.44;47.93;98937.70;437427;1250;97219;-41
2023/04/30 11:23:50;;;;;;;6.50;3.30;;;;;;;15.49;47.07;98931.83;437529;1250;97881;-41
2023/04/30 11:33:56;;;;;;;7.10;3.30;;;;;;;15.39;45.85;98935.04;437607;1250;107673;-42
2023/04/30 11:44:00;;;;;;;10.00;3.10;;;;;;;15.12;45.89;98933.46;438172;1247;118705;-42
2023/04/30 11:54:03;;;;;;;6.60;3.00;;;;;;;15.32;45.86;98935.30;437447;1250;108544;-41
2023/04/30 12:04:08;;;;;;;7.80;2.70;;;;;;;15.58;45.91;98932.17;437456;1247;97862;-42
2023/04/30 12:14:13;;;;;;;5.80;2.60;;;;;;;15.45;43.97;98937.77;437578;1246;109868;-41
2023/04/30 12:24:27;;;;;;;9.10;2.60;;;;;;;15.37;43.36;98941.90;437379;1250;108047;-42
2023/04/30 12:44:41;;;;;;;8.10;2.40;;;;;;;15.15;42.23;98936.91;437551;1250;109874;-43
2023/04/30 12:54:45;;;;;;;4.10;1.60;;;;;;;15.18;41.23;98930.34;437542;1247;107581;-43
2023/04/30 13:04:53;;;;;;;7.80;3.20;;;;;;;15.08;39.35;98925.58;437482;1249;98313;-43
2023/04/30 13:14:56;;;;;;;;;;;;;;;15.23;40.39;98925.20;437428;1250;109932;-43
2023/04/30 13:25:00;;;;;;;4.60;1.70;;;;;;;15.13;39.64;98913.98;437600;1250;97877;-42
2023/04/30 13:35:03;;;;;;;4.30;1.70;;;;;;;15.11;38.95;98922.90;437591;1249;97881;-41
2023/04/30 13:45:08;;;;;;;4.30;1.50;;;;;;;15.04;38.42;98926.25;437447;1250;108912;-42
2023/04/30 13:55:12;;;;;;;5.60;2.10;;;;;;;14.97;37.95;98929.54;437615;1247;108765;-42
2023/04/30 14:05:16;;;;;;;3.30;1.60;;;;;;;14.91;37.62;98926.81;437420;1250;97865;-43
2023/04/30 14:15:21;;;;;;;5.00;2.00;;;;;;;14.75;36.69;98927.75;437520;1250;97864;-42
2023/04/30 14:25:25;;;;;;;2.70;1.80;;;;;;;14.62;37.26;98931.97;437136;1250;108834;-42
2023/04/30 14:35:29;;;;;;;8.10;2.40;;;;;;;14.68;37.40;98931.72;436779;1252;97489;-42
2023/04/30 14:45:35;;;;;;;6.00;2.20;;;;;;;14.62;37.44;98926.48;436574;1250;109270;-42
2023/04/30 15:05:44;;;;;;;7.90;2.60;;;;;;;14.57;38.02;98933.61;436414;1253;98261;-42
2023/04/30 15:15:51;;;;;;;4.40;2.10;;;;;;;14.54;38.08;98932.67;436406;1253;97895;-42
2023/04/30 15:25:55;;;;;;;5.80;2.20;;;;;;;14.49;38.29;98936.01;436437;1261;108158;-43
2023/04/30 15:35:59;;;;;;;6.40;2.60;;;;;;;14.31;38.45;98935.27;436403;1253;96647;-43
2023/04/30 15:46:03;;;;;;;4.40;2.10;;;;;;;14.15;38.57;98931.64;436348;1253;388941;-42
2023/04/30 15:56:11;;;;;;;7.10;2.20;;;;;;;14.07;38.64;98936.28;436406;1253;107296;-43
2023/04/30 16:06:39;;;;;;;4.40;2.20;;;;;;;13.83;38.30;98942.89;436481;1253;98263;-42
2023/04/30 16:16:47;;;;;;;10.80;3.10;;;;;;;13.68;38.64;98939.89;436371;1261;112752;-42
2023/04/30 16:26:51;;;;;;;9.30;3.00;;;;;;;13.53;39.03;98933.48;436413;1253;108424;-42
2023/04/30 16:36:55;;;;;;;8.50;2.90;;;;;;;13.37;39.31;98930.14;436293;1249;97868;-43
2023/04/30 16:46:58;;;;;;;4.80;3.10;;;;;;;13.11;38.89;98931.95;435930;1252;111553;-42
2023/04/30 16:57:03;;;;;;;7.30;3.20;;;;;;;12.91;38.84;98929.55;436394;1254;97957;-43
2023/04/30 17:07:07;;;;;;;5.10;2.80;;;;;;;12.69;39.26;98936.30;436417;1253;98045;-41
2023/04/30 17:17:11;;;;;;;10.70;3.80;;;;;;;12.49;39.67;98944.98;436369;1252;109948;-41
2023/04/30 17:27:17;;;;;;;10.10;4.40;;;;;;;12.25;40.02;98945.16;436911;1253;109311;-42
2023/04/30 17:37:22;;;;;;;9.00;3.60;;;;;;;11.94;40.35;98962.34;436713;1253;97857;-42
2023/04/30 17:47:26;;;;;;;11.40;4.40;;;;;;;11.67;41.01;98973.80;436401;1253;97870;-43
2023/04/30 18:07:33;;;;;;;22.20;7.70;;;;;;;10.93;42.02;98990.85;436271;1251;118387;-42
2023/04/30 18:17:38;;;;;;;22.70;9.40;;;;;;;10.49;42.85;99000.69;436367;1254;108120;-41
2023/04/30 18:27:42;;;;;;;36.80;17.90;;;;;;;10.06;43.87;99009.67;436453;1252;97339;-42
2023/04/30 18:37:46;;;;;;;42.00;17.80;;;;;;;9.56;44.79;99018.20;436395;1252;109586;-41
2023/04/30 18:47:50;;;;;;;31.40;14.60;;;;;;;9.13;45.89;99026.69;436345;1261;96619;-41
2023/04/30 18:57:57;;;;;;;25.20;14.30;;;;;;;8.72;46.60;99030.95;436495;1261;97471;-42
2023/04/30 19:08:06;;;;;;;32.10;15.20;;;;;;;8.34;47.46;99036.91;436360;1261;96682;-41
2023/04/30 19:18:11;;;;;;;41.40;20.20;;;;;;;8.00;48.52;99041.09;436500;1251;109754;-42
2023/04/30 19:28:15;;;;;;;47.50;20.60;;;;;;;7.68;49.13;99043.86;436372;1254;97948;-41
2023/04/30 19:38:23;;;;;;;40.60;20.90;;;;;;;7.38;49.66;99045.83;436489;1254;97883;-42
2023/04/30 19:48:27;;;;;;;45.40;20.10;;;;;;;7.08;50.79;99049.86;436302;1254;98258;-42
2023/04/30 19:58:30;;;;;;;40.60;18.60;;;;;;;6.84;51.39;99058.61;436283;1254;97960;-40
2023/04/30 20:08:34;;;;;;;60.90;27.80;;;;;;;6.59;51.92;99059.05;436640;1247;108019;-42
2023/04/30 20:18:37;;;;;;;34.80;16.20;;;;;;;6.36;52.52;99062.45;436457;1254;97136;-41
2023/04/30 20:28:45;;;;;;;35.80;13.90;;;;;;;6.18;53.08;99070.65;436126;1253;97880;-41
2023/04/30 20:38:52;;;;;;;38.30;14.00;;;;;;;6.09;53.58;99077.20;436194;1254;108191;-43
2023/04/30 20:49:02;;;;;;;44.70;18.40;;;;;;;6.05;54.29;99070.30;437231;1248;98818;-40
2023/04/30 20:59:06;;;;;;;37.00;18.40;;;;;;;5.92;54.66;99070.02;437130;1254;109181;-42
2023/04/30 21:09:11;;;;;;;36.60;19.10;;;;;;;5.70;55.06;99074.64;436449;1253;97864;-41
2023/04/30 21:19:15;;;;;;;31.30;15.40;;;;;;;5.33;55.62;99078.79;436326;1253;97896;-41
2023/04/30 21:29:18;;;;;;;29.40;14.60;;;;;;;5.10;55.88;99091.14;436375;1253;97887;-42
2023/04/30 21:39:22;;;;;;;22.20;13.00;;;;;;;4.89;56.32;99103.27;436348;1248;107379;-42
2023/04/30 21:49:26;;;;;;;19.50;12.20;;;;;;;4.81;56.94;99103.55;436313;1248;97896;-43
2023/04/30 21:59:32;;;;;;;21.10;10.40;;;;;;;4.81;57.44;99111.97;436469;1252;110044;-41
2023/04/30 22:19:39;;;;;;;30.90;14.40;;;;;;;4.42;58.00;99128.89;436353;1253;96736;-41
2023/04/30 22:29:43;;;;;;;29.60;14.00;;;;;;;4.26;58.95;99132.70;436503;1253;97854;-42
2023/04/30 22:39:47;;;;;;;26.80;13.60;;;;;;;4.15;59.41;99147.77;436412;1248;107196;-41
2023/04/30 22:49:51;;;;;;;21.50;12.80;;;;;;;3.95;59.53;99143.43;436426;1251;97756;-40
2023/04/30 22:59:55;;;;;;;19.90;10.40;;;;;;;3.76;59.73;99142.44;436199;1253;98009;-42
2023/04/30 23:20:09;;;;;;;23.50;11.70;;;;;;;3.98;60.06;99144.09;436191;1248;97887;-41
2023/04/30 23:30:12;;;;;;;24.40;16.10;;;;;;;3.82;60.38;99142.84;436308;1253;106934;-41
2023/04/30 23:40:15;;;;;;;37.10;17.90;;;;;;;3.64;60.87;99142.73;436346;1248;97874;-42
2023/04/30 23:50:23;;;;;;;47.90;21.70;;;;;;;3.51;61.16;99147.34;436374;1248;96660;-41
